Detall de PIREP

Printer-friendly versionPDF version

[2011/04/20 07:34:00]
Flight IATA:CT2109
Pilot Number:041
Company ICAO:CAT
Aircraft Type:B463/A
PAX:59
Departing Airport: LEMG
Destination Airport: LEVC
Alternate Airport:LEBL
Online: VATSIM
Route:VIBAS UM985 ASTRO
Flight Level:F300
No Slew and time accel
No pause
Crash detect
Detect pilot in Cockpit between each 30 and 45 minutes
07:34 Zero fuel Weight: 72708 Lbs, Fuel Weight: 20571 Lbs
07:34 VATSIM:LEMG 200716Z 15005KT 120V180 5000 BR FEW015 BKN020 17/13 Q1011 NOSIG
07:34 VATSIM:LEVC 200700Z 32003KT 9999 FEW016 14/11 Q1014 NOSIG
07:34 VOICE CATALONIAN
07:42 Parking Brakes off
07:51 Take-off
07:51 Take off Weight: 92660 Lbs
07:51 Wind: 149º @ 005 Knots Heading: 131º
07:51 POS N36º 40´ 29´´ W004º 29´ 56´´
07:51 Gear Up: 188 Knots
07:51 Flaps:1 at 188 Knots
07:51 Flaps:0 at 243 Knots
08:06 Wind:208º@000 Knots Heading: 045º Ground Speed: 376 Knots Altitude 27677 ft
08:07 TOC
08:07 Fuel Weight: 17838 Lb
08:16 TOD
08:16 Fuel Weight: 17040 Lb
08:21 Wind:135º@011 Knots Heading: 054º Ground Speed: 325 Knots Altitude 21341 ft
08:34 Flaps:1 at 226 Knots
08:36 Wind:284º@002 Knots Heading: 000º Ground Speed: 228 Knots Altitude 4990 ft
08:38 Gear Down: 197 Knots
08:38 Flaps:2 at 182 Knots
08:39 Flaps:3 at 169 Knots
08:43 TouchDown:Rate -216 ft/min Speed: 129 Knots
08:43 Flaps:0 at 123 Knots
08:44 VATSIM:LEVC 200830Z 07005KT 030V100 9999 FEW020 SCT030 17/12 Q1014 NOSIG
08:44 Land
08:44 Wind:293º@002 Knots
08:44 Heading: 116º
08:44 Flight Duration: 00:53
08:44 Landing Weight: 88535 Lbs
08:44 POS N39º 29´ 22´´ W000º 28´ 54´´
08:47 Parking brakes on
08:47 Block to Block Duration: 01:05
08:47 Final Fuel: 15694 Lbls
08:47 Spent Fuel: 4876 Lbls
08:47 Flight Length: 266 NM
08:47 TOD Land Length: 120 NM

Exportar CSV

Powered by Drupal - Modified by Danger4k